Terminal Aerodrome Forecast
Issued by NWS

Home | Current Version | Previous Version | Text Only | Print | Product List | Glossary On
Versions: 1 2 3 4 5 6 7 8 9 10 11 12 13
000
FTUS43 KBIS 041738
TAFDIK
TAF
KDIK 041738Z 0418/0518 12014KT P6SM SCT070 SCT150
     FM050700 12009KT P6SM VCTS SCT070CB OVC150
     FM051200 23010KT P6SM SCT100=

USA.gov is the U.S. government's official web portal to all federal, state and local government web resources and services.